• Join FlightAware (Why Join?)
  • Login
  • US Flag 
03:58PM EDT


 

Airport Tracker/Info


-or-


 

Live Flight TrackerFlight Track Log ✈ N45ER ✈ 17-Jan-2014 ✈ KTYQ - KTYQ

Flight Track Log - Related Links

Times and Time Zones

All times are in EST time to prevent confusion due to time zone crossing. See the N45ER flight status page for this flight to view local times or setup timezone preferences in your user account.

Time Position Orientation Groundspeed Altitude Reporting Facility
EST Latitude Longitude Course Direction KTS MPH feet Rate Location/Type
01:07PM 40.0167 -86.2500 17° North 75 86 1,400  Level Indianapolis TRACON
01:08PM 40.0167 -86.2667 270° West 82 94 1,900 540 Climbing Indianapolis TRACON
01:09PM 40.0000 -86.2833 217° Southwest 86 99 2,300 480 Climbing Indianapolis TRACON
01:10PM 39.9833 -86.3000 217° Southwest 83 96 2,700 360 Climbing Indianapolis TRACON
01:11PM 39.9708 -86.3219 233° Southwest 93 107 3,000 120 Climbing Indianapolis Center
01:12PM 39.9956 -86.3444 325° Northwest 105 121 3,000  Level Indianapolis Center
01:13PM 40.0307 -86.2514 17° North  Level Estimated
01:13PM 40.0264 -86.3528 348° North 115 132 3,000  Level Indianapolis Center
01:14PM 40.0586 -86.3481 North 116 133 3,100  Climbing Indianapolis Center
01:15PM 40.0994 -86.3425 North 120 138 3,000 -60 Descending Indianapolis Center
01:16PM 40.1336 -86.3383 North 122 140 3,000  Level Indianapolis Center
01:17PM 40.1672 -86.3353 North 121 139 3,000  Level Indianapolis Center
01:18PM 40.1875 -86.3028 51° Northeast 135 155 3,000  Level Indianapolis Center
01:19PM 40.1875 -86.2614 90° East 135 155 3,000 -120 Level Indianapolis Center
01:20PM 40.1681 -86.2489 154° Southeast 98 113 2,800 -180 Descending Indianapolis Center
01:21PM 40.1453 -86.2536 189° South 77 89 2,700 -60 Descending Indianapolis Center
01:22PM 40.1242 -86.2489 170° South 76 87 2,700 -300 Level Indianapolis Center
01:23PM 40.1006 -86.2508 184° South 79 91 2,100 -540 Descending Indianapolis Center
01:24PM 40.0744 -86.2503 179° South 87 100 1,700 -300 Descending Indianapolis Center
01:25PM 40.0494 -86.2517 182° South 88 101 1,600  Descending Indianapolis Center
01:26PM 40.0264 -86.2511 179° South 95 109 1,700 240 Climbing Indianapolis Center
01:27PM 40.0111 -86.2300 133° Southeast 115 132 2,100 480 Climbing Indianapolis Center
01:28PM 40.0156 -86.1797 83° East 116 133 2,800 420 Climbing Indianapolis Center
01:29PM 40.0308 -86.1544 52° Northeast 119 137 3,000 60 Climbing Indianapolis Center
01:30PM 40.0647 -86.1483 North 124 143 3,000  Level Indianapolis Center
01:31PM 40.0989 -86.1442 North 124 143 3,000  Level Indianapolis Center
01:32PM 40.1331 -86.1414 North 123 142 3,000  Level Indianapolis Center
01:33PM 40.1672 -86.1389 North 123 142 3,000  Level Indianapolis Center
01:34PM 40.1756 -86.1764 286° West 114 131 3,000  Level Indianapolis Center
01:35PM 40.1747 -86.2061 268° West 96 110 3,000  Level Indianapolis Center
01:36PM 40.1664 -86.2278 243° Southwest 85 98 3,000  Level Indianapolis Center
01:37PM 40.1425 -86.2381 198° South 90 104 3,000  Level Indianapolis Center
01:38PM 40.1350 -86.2075 108° East 105 121 3,100  Climbing Indianapolis Center
01:40PM 40.1567 -86.1825 41° Northeast 108 124 3,100 -60 Level Indianapolis Center
01:41PM 40.1703 -86.2011 314° West 102 117 3,000  Descending Indianapolis Center
01:42PM 40.1692 -86.2372 268° West 89 102 3,100  Climbing Indianapolis Center
01:43PM 40.1469 -86.2531 209° Southwest 92 106 3,000 -240 Descending Indianapolis Center
01:44PM 40.1172 -86.2525 179° South 99 114 2,700 -480 Descending Indianapolis Center
01:45PM 40.0889 -86.2511 178° South 102 117 2,100 -540 Descending Indianapolis Center
01:46PM 40.0556 -86.2500 179° South 103 119 1,600 -240 Descending Indianapolis Center
01:47PM 40.0258 -86.2508 181° South 115 132 1,600 420 Level Indianapolis Center
01:48PM 39.9936 -86.2492 178° South 97 112 2,600 600 Climbing Indianapolis Center
01:49PM 39.9806 -86.2664 225° Southwest 95 109 2,900 180 Climbing Indianapolis Center
01:50PM 39.9786 -86.3022 266° West 97 112 3,000  Climbing Indianapolis Center
01:51PM 39.9978 -86.3278 314° West 106 122 3,000  Level Indianapolis Center
01:52PM 40.0267 -86.3514 328° Northwest 116 133 3,000  Level Indianapolis Center
01:53PM 40.0522 -86.3767 323° Northwest 118 136 3,000  Level Indianapolis Center
01:54PM 40.0794 -86.4028 324° Northwest 119 137 3,000  Level Indianapolis Center
01:55PM 40.1139 -86.4328 326° Northwest 122 140 3,000  Level Indianapolis Center
01:56PM 40.1411 -86.4572 326° Northwest 122 140 3,000  Level Indianapolis Center
01:57PM 40.1672 -86.4825 324° Northwest 119 137 3,000  Level Indianapolis Center
01:58PM 40.1939 -86.5061 326° Northwest 118 136 3,000  Level Indianapolis Center
01:59PM 40.2219 -86.4839 31° Northeast 129 148 3,000  Level Indianapolis Center
02:00PM 40.2433 -86.4397 58° Northeast 138 159 3,000  Level Indianapolis Center
02:01PM 40.2536 -86.3928 74° East 149 171 3,000  Level Indianapolis Center
02:02PM 40.2547 -86.3300 89° East 147 169 3,000  Level Indianapolis Center
02:03PM 40.2542 -86.2844 91° East 138 159 3,000 -180 Level Indianapolis Center
02:04PM 40.2414 -86.2572 122° Southeast 124 143 2,700 -180 Descending Indianapolis Center
02:05PM 40.2181 -86.2525 171° South 101 116 2,700  Level Indianapolis Center
02:06PM 40.1931 -86.2503 176° South 93 107 2,800  Climbing Indianapolis Center
02:07PM 40.1697 -86.2514 182° South 88 101 2,800 -60 Level Indianapolis Center
02:08PM 40.1467 -86.2519 181° South 86 99 2,700 -240 Descending Indianapolis Center
02:09PM 40.1181 -86.2528 181° South 85 98 2,400 -540 Descending Indianapolis Center
02:11PM 40.0914 -86.2522 179° South 89 102 1,700 -300 Descending Indianapolis Center
02:12PM 40.0669 -86.2511 178° South 90 104 1,800  Climbing Indianapolis Center
02:13PM 40.0439 -86.2511 180° South 87 100 1,700  Descending Indianapolis Center
02:14PM 40.0189 -86.2494 177° South 87 100 1,900 420 Climbing Indianapolis Center
02:15PM 39.9997 -86.2692 218° Southwest 100 115 2,600 480 Climbing Indianapolis Center
02:16PM 40.0017 -86.3044 274° West 98 113 2,900 180 Climbing Indianapolis Center
02:17PM 40.0272 -86.3283 324° Northwest 119 137 3,000  Climbing Indianapolis Center
02:18PM 40.0656 -86.3144 15° North 137 158 3,000  Level Indianapolis Center
02:19PM 40.1036 -86.3031 13° North 139 160 3,000  Level Indianapolis Center
02:20PM 40.1414 -86.2917 13° North 140 161 3,000  Level Indianapolis Center
02:21PM 40.1778 -86.2789 15° North 138 159 3,000  Level Indianapolis Center
02:22PM 40.2150 -86.2669 14° North 138 159 3,000  Level Indianapolis Center
02:23PM 40.2514 -86.2536 16° North 137 158 3,000  Level Indianapolis Center
02:24PM 40.2947 -86.2469 North 134 154 3,000  Level Indianapolis Center
02:25PM 40.3128 -86.2742 311° West 124 143 3,100  Climbing Indianapolis Center
02:26PM 40.2850 -86.2683 171° South 121 139 3,000 -120 Descending Indianapolis Center
02:27PM 40.2539 -86.2397 145° Southeast 134 154 2,900  Descending Indianapolis Center
02:28PM 40.2436 -86.2681 245° Southwest 124 143 3,000 60 Climbing Indianapolis Center
02:29PM 40.2775 -86.2744 352° North 125 144 3,100  Climbing Indianapolis Center
02:30PM 40.3036 -86.2464 39° Northeast 135 155 3,000 -60 Descending Indianapolis Center
02:31PM 40.2703 -86.2375 168° South 129 148 3,000  Level Indianapolis Center
02:32PM 40.2431 -86.2581 210° Southwest 127 146 3,100  Climbing Indianapolis Center
02:33PM 40.2689 -86.2797 327° Northwest 126 145 3,000 -60 Descending Indianapolis Center
02:34PM 40.3025 -86.2797 360° North 140 161 3,000  Level Indianapolis Center
02:35PM 40.2808 -86.2558 140° Southeast 137 158 3,100  Climbing Indianapolis Center
02:36PM 40.2400 -86.2583 183° South 126 145 3,000 -60 Descending Indianapolis Center
02:37PM 40.2131 -86.2353 147° Southeast 135 155 3,000 -60 Level Indianapolis Center
02:38PM 40.2000 -86.1925 112° Southeast 132 152 2,900 -180 Descending Indianapolis Center
02:39PM 40.1714 -86.1922 180° South 124 143 2,700 -120 Descending Indianapolis Center
02:40PM 40.1400 -86.2042 196° South 117 135 2,700  Level Indianapolis Center